Main page
METAR-TAF:

METAR-TAF

Airports :

Cambridge Airport

Cambridge, England

latitude: 52-12N, longitude: 000-11E, elevation: 15 m

Current weather observation

The report was made 6 hours and 7 minutes ago, at 17:50 UTC
Wind 13 kt from the South
Temperature 10°C
Humidity 82%
Pressure 1013 hPa
Visibility 10 km or more
Few clouds at a height of 3000 ft

METAR: EGSC 241750Z 18013KT 9999 FEW030 10/07 Q1013

Time: 23:57 (23:57 UTC)

Forecast

The report was made 9 hours and 55 minutes ago, at 14:02 UTC
Forecast valid from 24 at 15 UTC to 24 at 18 UTC
Wind 10 kt from the South
Visibility 10 km or more
Few clouds at a height of 2000 ft
Probability 30% :
Temporary
from 24 at 15 UTC to 24 at 18 UTC
Broken clouds at a height of 1400 ft

TAF: EGSC 241402Z 2415/2418 18010KT 9999 FEW020 PROB30 TEMPO 2415/2418 BKN014

Weather observations and forecasts of more than 4000 airports (METAR and TAF reports).

The available stations are represented by yellow and red dots on the map.

Hover mouse over dot to see the name of the station.

Then click to see weather observations and forecasts.

To change the map : click on the green buttons with a black cross to zoom in, on the green button with a dash to zoom out, or on the green arrows for adjacent maps.


METAR-TAF: